sensor_id;sensor_type;location;lat;lon;timestamp;pressure;altitude;pressure_sealevel;temperature;humidity
28306;BME280;7516;43.570;1.448;2024-03-17T00:02:19;100106.84;;;13.11;97.96
28306;BME280;7516;43.570;1.448;2024-03-17T00:04:45;100110.31;;;13.11;98.15
28306;BME280;7516;43.570;1.448;2024-03-17T00:07:15;100106.19;;;13.17;98.45
28306;BME280;7516;43.570;1.448;2024-03-17T00:09:45;100106.19;;;13.17;98.12
28306;BME280;7516;43.570;1.448;2024-03-17T00:12:13;100099.47;;;13.14;98.21
28306;BME280;7516;43.570;1.448;2024-03-17T00:14:39;100101.41;;;13.12;98.02
28306;BME280;7516;43.570;1.448;2024-03-17T00:17:09;100108.69;;;13.10;98.45
28306;BME280;7516;43.570;1.448;2024-03-17T00:19:36;100088.16;;;13.06;98.74
28306;BME280;7516;43.570;1.448;2024-03-17T00:22:03;100093.59;;;13.04;98.45
28306;BME280;7516;43.570;1.448;2024-03-17T00:24:31;100080.69;;;12.95;98.34
28306;BME280;7516;43.570;1.448;2024-03-17T00:27:01;100064.97;;;12.87;98.65
28306;BME280;7516;43.570;1.448;2024-03-17T00:29:27;100071.25;;;12.86;98.57
28306;BME280;7516;43.570;1.448;2024-03-17T00:31:55;100058.47;;;12.82;99.38
28306;BME280;7516;43.570;1.448;2024-03-17T00:34:22;100051.56;;;12.81;99.39
28306;BME280;7516;43.570;1.448;2024-03-17T00:36:50;100062.44;;;12.78;99.49
28306;BME280;7516;43.570;1.448;2024-03-17T00:39:17;100066.34;;;12.82;99.74
28306;BME280;7516;43.570;1.448;2024-03-17T00:41:46;100077.13;;;12.73;99.46
28306;BME280;7516;43.570;1.448;2024-03-17T00:44:13;100067.75;;;12.70;99.89
28306;BME280;7516;43.570;1.448;2024-03-17T00:46:44;100074.09;;;12.76;99.91
28306;BME280;7516;43.570;1.448;2024-03-17T00:49:11;100068.41;;;12.72;99.21
28306;BME280;7516;43.570;1.448;2024-03-17T00:51:39;100056.25;;;12.71;99.48
28306;BME280;7516;43.570;1.448;2024-03-17T00:54:05;100065.47;;;12.67;99.84
28306;BME280;7516;43.570;1.448;2024-03-17T00:56:33;100056.16;;;12.65;99.91
28306;BME280;7516;43.570;1.448;2024-03-17T00:59:01;100065.38;;;12.61;99.30
28306;BME280;7516;43.570;1.448;2024-03-17T01:01:28;100065.38;;;12.61;100.00
28306;BME280;7516;43.570;1.448;2024-03-17T01:03:55;100061.91;;;12.60;99.67
28306;BME280;7516;43.570;1.448;2024-03-17T01:06:22;100056.38;;;12.55;100.00
28306;BME280;7516;43.570;1.448;2024-03-17T01:08:49;100040.31;;;12.50;99.75
28306;BME280;7516;43.570;1.448;2024-03-17T01:11:18;100028.22;;;12.41;99.78
28306;BME280;7516;43.570;1.448;2024-03-17T01:13:45;100028.41;;;12.39;100.00
28306;BME280;7516;43.570;1.448;2024-03-17T01:16:14;100015.44;;;12.38;100.00
28306;BME280;7516;43.570;1.448;2024-03-17T01:18:44;100013.50;;;12.32;100.00
28306;BME280;7516;43.570;1.448;2024-03-17T01:21:15;100016.31;;;12.30;100.00
28306;BME280;7516;43.570;1.448;2024-03-17T01:23:44;100025.53;;;12.26;100.00
28306;BME280;7516;43.570;1.448;2024-03-17T01:26:14;100025.06;;;12.23;100.00
28306;BME280;7516;43.570;1.448;2024-03-17T01:28:44;100038.41;;;12.21;100.00
28306;BME280;7516;43.570;1.448;2024-03-17T01:31:15;100026.13;;;12.14;100.00
28306;BME280;7516;43.570;1.448;2024-03-17T01:33:45;100016.25;;;12.16;100.00
28306;BME280;7516;43.570;1.448;2024-03-17T01:36:14;100012.50;;;12.10;100.00
28306;BME280;7516;43.570;1.448;2024-03-17T01:38:44;100015.47;;;12.07;100.00
28306;BME280;7516;43.570;1.448;2024-03-17T01:41:14;100011.09;;;11.99;100.00
28306;BME280;7516;43.570;1.448;2024-03-17T01:43:43;100016.47;;;12.06;100.00
28306;BME280;7516;43.570;1.448;2024-03-17T01:46:16;100012.75;;;12.00;100.00
28306;BME280;7516;43.570;1.448;2024-03-17T01:48:43;100011.28;;;11.98;100.00
28306;BME280;7516;43.570;1.448;2024-03-17T01:51:15;100007.50;;;12.00;100.00
28306;BME280;7516;43.570;1.448;2024-03-17T01:53:45;100010.44;;;11.97;100.00
28306;BME280;7516;43.570;1.448;2024-03-17T01:56:12;100010.81;;;11.94;100.00
28306;BME280;7516;43.570;1.448;2024-03-17T01:58:42;100004.22;;;11.98;100.00
28306;BME280;7516;43.570;1.448;2024-03-17T02:01:13;100006.38;;;11.95;100.00
28306;BME280;7516;43.570;1.448;2024-03-17T02:03:42;100010.50;;;11.89;100.00
28306;BME280;7516;43.570;1.448;2024-03-17T02:06:09;100015.25;;;11.94;100.00
28306;BME280;7516;43.570;1.448;2024-03-17T02:08:49;100007.38;;;11.94;100.00
28306;BME280;7516;43.570;1.448;2024-03-17T02:11:25;100009.50;;;11.90;100.00
28306;BME280;7516;43.570;1.448;2024-03-17T02:13:52;99999.94;;;11.97;100.00
28306;BME280;7516;43.570;1.448;2024-03-17T02:16:20;99998.84;;;11.92;100.00
28306;BME280;7516;43.570;1.448;2024-03-17T02:18:48;99990.78;;;11.93;100.00
28306;BME280;7516;43.570;1.448;2024-03-17T02:21:16;99985.50;;;12.01;100.00
28306;BME280;7516;43.570;1.448;2024-03-17T02:23:44;99980.94;;;11.95;100.00
28306;BME280;7516;43.570;1.448;2024-03-17T02:26:13;99971.25;;;11.96;100.00
28306;BME280;7516;43.570;1.448;2024-03-17T02:28:44;99968.63;;;11.96;100.00
28306;BME280;7516;43.570;1.448;2024-03-17T02:31:14;99968.44;;;11.97;100.00
28306;BME280;7516;43.570;1.448;2024-03-17T02:33:41;99955.78;;;12.01;100.00
28306;BME280;7516;43.570;1.448;2024-03-17T02:36:11;99953.84;;;11.95;100.00
28306;BME280;7516;43.570;1.448;2024-03-17T02:38:39;99933.47;;;11.97;100.00
28306;BME280;7516;43.570;1.448;2024-03-17T02:41:25;99939.53;;;11.97;100.00
28306;BME280;7516;43.570;1.448;2024-03-17T02:43:54;99946.81;;;11.95;100.00
28306;BME280;7516;43.570;1.448;2024-03-17T02:46:22;99936.91;;;11.97;100.00
28306;BME280;7516;43.570;1.448;2024-03-17T02:48:52;99942.66;;;12.01;100.00
28306;BME280;7516;43.570;1.448;2024-03-17T02:51:21;99944.28;;;12.02;100.00
28306;BME280;7516;43.570;1.448;2024-03-17T02:53:50;99957.25;;;12.03;100.00
28306;BME280;7516;43.570;1.448;2024-03-17T02:56:18;99956.13;;;11.98;100.00
28306;BME280;7516;43.570;1.448;2024-03-17T02:58:47;99955.28;;;11.97;100.00
28306;BME280;7516;43.570;1.448;2024-03-17T03:01:17;99960.22;;;12.00;100.00
28306;BME280;7516;43.570;1.448;2024-03-17T03:03:45;99955.78;;;12.01;100.00
28306;BME280;7516;43.570;1.448;2024-03-17T03:06:13;99955.94;;;11.99;100.00
28306;BME280;7516;43.570;1.448;2024-03-17T03:08:43;99944.28;;;12.02;100.00
28306;BME280;7516;43.570;1.448;2024-03-17T03:11:15;99942.06;;;12.14;100.00
28306;BME280;7516;43.570;1.448;2024-03-17T03:13:43;99943.28;;;12.03;100.00
28306;BME280;7516;43.570;1.448;2024-03-17T03:16:14;99948.53;;;12.03;100.00
28306;BME280;7516;43.570;1.448;2024-03-17T03:18:45;99951.28;;;12.10;100.00
28306;BME280;7516;43.570;1.448;2024-03-17T03:21:12;99949.63;;;12.09;100.00
28306;BME280;7516;43.570;1.448;2024-03-17T03:23:40;99946.50;;;12.13;100.00
28306;BME280;7516;43.570;1.448;2024-03-17T03:26:10;99938.66;;;12.05;100.00
28306;BME280;7516;43.570;1.448;2024-03-17T03:28:44;99937.56;;;11.99;100.00
28306;BME280;7516;43.570;1.448;2024-03-17T03:31:16;99932.97;;;12.01;100.00
28306;BME280;7516;43.570;1.448;2024-03-17T03:33:44;99942.66;;;12.01;100.00
28306;BME280;7516;43.570;1.448;2024-03-17T03:36:15;99938.22;;;12.01;100.00
28306;BME280;7516;43.570;1.448;2024-03-17T03:38:43;99942.47;;;12.02;100.00
28306;BME280;7516;43.570;1.448;2024-03-17T03:41:15;99943.47;;;12.01;100.00
28306;BME280;7516;43.570;1.448;2024-03-17T03:43:43;99942.75;;;12.07;100.00
28306;BME280;7516;43.570;1.448;2024-03-17T03:46:12;99949.16;;;12.05;100.00
28306;BME280;7516;43.570;1.448;2024-03-17T03:48:41;99947.56;;;12.04;100.00
28306;BME280;7516;43.570;1.448;2024-03-17T03:51:09;99958.56;;;11.99;100.00
28306;BME280;7516;43.570;1.448;2024-03-17T03:53:42;99956.19;;;12.13;100.00
28306;BME280;7516;43.570;1.448;2024-03-17T03:56:09;99958.50;;;12.07;100.00
28306;BME280;7516;43.570;1.448;2024-03-17T03:58:38;99959.66;;;12.05;100.00
28306;BME280;7516;43.570;1.448;2024-03-17T04:01:10;99948.00;;;12.07;100.00
28306;BME280;7516;43.570;1.448;2024-03-17T04:03:39;99945.91;;;12.03;100.00
28306;BME280;7516;43.570;1.448;2024-03-17T04:06:13;99941.47;;;12.03;100.00
28306;BME280;7516;43.570;1.448;2024-03-17T04:08:42;99942.66;;;12.01;100.00
28306;BME280;7516;43.570;1.448;2024-03-17T04:11:12;99942.47;;;12.02;100.00
28306;BME280;7516;43.570;1.448;2024-03-17T04:13:39;99940.84;;;12.01;100.00
28306;BME280;7516;43.570;1.448;2024-03-17T04:16:12;99941.00;;;12.00;100.00
28306;BME280;7516;43.570;1.448;2024-03-17T04:18:41;99947.19;;;12.07;100.00
28306;BME280;7516;43.570;1.448;2024-03-17T04:21:09;99949.00;;;12.06;100.00
28306;BME280;7516;43.570;1.448;2024-03-17T04:23:38;99941.41;;;12.12;100.00
28306;BME280;7516;43.570;1.448;2024-03-17T04:26:05;99940.78;;;12.10;100.00
28306;BME280;7516;43.570;1.448;2024-03-17T04:28:35;99941.59;;;12.10;100.00
28306;BME280;7516;43.570;1.448;2024-03-17T04:31:04;99938.16;;;12.10;100.00
28306;BME280;7516;43.570;1.448;2024-03-17T04:33:32;99943.41;;;12.10;100.00
28306;BME280;7516;43.570;1.448;2024-03-17T04:36:01;99943.28;;;12.03;100.00
28306;BME280;7516;43.570;1.448;2024-03-17T04:38:30;99938.84;;;12.03;100.00
28306;BME280;7516;43.570;1.448;2024-03-17T04:40:58;99935.28;;;11.96;100.00
28306;BME280;7516;43.570;1.448;2024-03-17T04:43:31;99942.22;;;11.89;100.00
28306;BME280;7516;43.570;1.448;2024-03-17T04:46:04;99931.44;;;11.84;100.00
28306;BME280;7516;43.570;1.448;2024-03-17T04:48:32;99929.81;;;11.83;100.00
28306;BME280;7516;43.570;1.448;2024-03-17T04:51:01;99949.50;;;11.79;100.00
28306;BME280;7516;43.570;1.448;2024-03-17T04:53:28;99954.75;;;11.79;100.00
28306;BME280;7516;43.570;1.448;2024-03-17T04:56:03;99953.50;;;11.75;100.00
28306;BME280;7516;43.570;1.448;2024-03-17T04:58:31;99962.00;;;11.77;100.00
28306;BME280;7516;43.570;1.448;2024-03-17T05:01:04;99968.91;;;11.78;100.00
28306;BME280;7516;43.570;1.448;2024-03-17T05:03:32;99976.78;;;11.70;100.00
28306;BME280;7516;43.570;1.448;2024-03-17T05:06:02;99976.78;;;11.70;100.00
28306;BME280;7516;43.570;1.448;2024-03-17T05:08:31;99976.16;;;11.68;100.00
28306;BME280;7516;43.570;1.448;2024-03-17T05:10:59;99986.66;;;11.68;100.00
28306;BME280;7516;43.570;1.448;2024-03-17T05:13:27;99994.03;;;11.64;100.00
28306;BME280;7516;43.570;1.448;2024-03-17T05:15:54;99995.38;;;11.60;100.00
28306;BME280;7516;43.570;1.448;2024-03-17T05:18:22;99992.28;;;11.57;100.00
28306;BME280;7516;43.570;1.448;2024-03-17T05:20:57;99998.53;;;11.48;100.00
28306;BME280;7516;43.570;1.448;2024-03-17T05:23:27;100000.34;;;11.47;100.00
28306;BME280;7516;43.570;1.448;2024-03-17T05:25:56;100001.81;;;11.50;100.00
28306;BME280;7516;43.570;1.448;2024-03-17T05:28:24;100011.84;;;11.46;100.00
28306;BME280;7516;43.570;1.448;2024-03-17T05:30:52;100004.50;;;11.42;100.00
28306;BME280;7516;43.570;1.448;2024-03-17T05:33:20;100003.66;;;11.41;100.00
28306;BME280;7516;43.570;1.448;2024-03-17T05:35:51;100007.28;;;11.40;100.00
28306;BME280;7516;43.570;1.448;2024-03-17T05:38:20;100021.09;;;11.34;100.00
28306;BME280;7516;43.570;1.448;2024-03-17T05:40:57;100023.88;;;11.32;100.00
28306;BME280;7516;43.570;1.448;2024-03-17T05:43:26;100020.88;;;11.36;100.00
28306;BME280;7516;43.570;1.448;2024-03-17T05:45:54;100021.53;;;11.38;100.00
28306;BME280;7516;43.570;1.448;2024-03-17T05:48:24;100030.22;;;11.38;100.00
28306;BME280;7516;43.570;1.448;2024-03-17T05:50:51;100035.47;;;11.38;100.00
28306;BME280;7516;43.570;1.448;2024-03-17T05:53:19;100033.84;;;11.37;100.00
28306;BME280;7516;43.570;1.448;2024-03-17T05:55:47;100042.53;;;11.38;100.00
28306;BME280;7516;43.570;1.448;2024-03-17T05:58:16;100042.22;;;11.41;100.00
28306;BME280;7516;43.570;1.448;2024-03-17T06:00:43;100039.91;;;11.38;100.00
28306;BME280;7516;43.570;1.448;2024-03-17T06:03:11;100038.09;;;11.38;100.00
28306;BME280;7516;43.570;1.448;2024-03-17T06:05:39;100039.88;;;11.46;100.00
28306;BME280;7516;43.570;1.448;2024-03-17T06:08:08;100023.94;;;11.55;100.00
28306;BME280;7516;43.570;1.448;2024-03-17T06:10:38;100022.81;;;11.50;100.00
28306;BME280;7516;43.570;1.448;2024-03-17T06:13:09;100021.19;;;11.49;100.00
28306;BME280;7516;43.570;1.448;2024-03-17T06:15:39;100036.25;;;11.55;100.00
28306;BME280;7516;43.570;1.448;2024-03-17T06:18:07;100044.56;;;11.66;100.00
28306;BME280;7516;43.570;1.448;2024-03-17T06:20:40;100040.25;;;11.74;100.00
28306;BME280;7516;43.570;1.448;2024-03-17T06:23:13;100035.16;;;11.80;100.00
28306;BME280;7516;43.570;1.448;2024-03-17T06:25:45;100032.69;;;11.87;100.00
28306;BME280;7516;43.570;1.448;2024-03-17T06:28:14;100029.06;;;11.88;100.00
28306;BME280;7516;43.570;1.448;2024-03-17T06:30:44;100033.47;;;11.95;100.00
28306;BME280;7516;43.570;1.448;2024-03-17T06:33:15;100031.28;;;11.99;100.00
28306;BME280;7516;43.570;1.448;2024-03-17T06:35:45;100022.09;;;12.03;100.00
28306;BME280;7516;43.570;1.448;2024-03-17T06:38:12;100030.91;;;12.10;100.00
28306;BME280;7516;43.570;1.448;2024-03-17T06:40:48;100032.53;;;12.11;100.00
28306;BME280;7516;43.570;1.448;2024-03-17T06:43:16;100027.63;;;12.08;100.00
28306;BME280;7516;43.570;1.448;2024-03-17T06:45:54;100036.97;;;12.11;100.00
28306;BME280;7516;43.570;1.448;2024-03-17T06:48:22;100017.22;;;12.15;100.00
28306;BME280;7516;43.570;1.448;2024-03-17T06:50:50;100017.22;;;12.15;100.00
28306;BME280;7516;43.570;1.448;2024-03-17T06:53:18;100012.47;;;12.18;100.00
28306;BME280;7516;43.570;1.448;2024-03-17T06:55:53;100028.22;;;12.18;100.00
28306;BME280;7516;43.570;1.448;2024-03-17T06:58:21;100025.44;;;12.20;100.00
28306;BME280;7516;43.570;1.448;2024-03-17T07:00:54;100026.75;;;12.16;100.00
28306;BME280;7516;43.570;1.448;2024-03-17T07:03:24;100022.50;;;12.15;100.00
28306;BME280;7516;43.570;1.448;2024-03-17T07:05:53;100016.78;;;12.11;100.00
28306;BME280;7516;43.570;1.448;2024-03-17T07:08:21;100023.69;;;12.12;100.00
28306;BME280;7516;43.570;1.448;2024-03-17T07:10:58;100029.56;;;12.14;100.00
28306;BME280;7516;43.570;1.448;2024-03-17T07:13:29;100028.41;;;12.17;100.00
28306;BME280;7516;43.570;1.448;2024-03-17T07:15:58;100028.22;;;12.18;100.00
28306;BME280;7516;43.570;1.448;2024-03-17T07:18:26;100034.13;;;12.20;100.00
28306;BME280;7516;43.570;1.448;2024-03-17T07:20:57;100044.91;;;12.25;100.00
28306;BME280;7516;43.570;1.448;2024-03-17T07:23:25;100042.25;;;12.33;100.00
28306;BME280;7516;43.570;1.448;2024-03-17T07:25:53;100056.69;;;12.37;100.00
28306;BME280;7516;43.570;1.448;2024-03-17T07:28:21;100050.88;;;12.42;100.00
28306;BME280;7516;43.570;1.448;2024-03-17T07:30:49;100055.41;;;12.56;100.00
28306;BME280;7516;43.570;1.448;2024-03-17T07:33:19;100052.31;;;12.67;100.00
28306;BME280;7516;43.570;1.448;2024-03-17T07:35:48;100051.50;;;12.67;100.00
28306;BME280;7516;43.570;1.448;2024-03-17T07:38:16;100039.19;;;12.67;100.00
28306;BME280;7516;43.570;1.448;2024-03-17T07:40:44;100046.88;;;12.69;100.00
28306;BME280;7516;43.570;1.448;2024-03-17T07:43:12;100050.81;;;12.73;100.00
28306;BME280;7516;43.570;1.448;2024-03-17T07:45:40;100045.38;;;12.74;100.00
28306;BME280;7516;43.570;1.448;2024-03-17T07:48:15;100043.94;;;12.87;100.00
28306;BME280;7516;43.570;1.448;2024-03-17T07:50:43;100057.41;;;12.92;100.00
28306;BME280;7516;43.570;1.448;2024-03-17T07:53:20;100055.59;;;13.07;100.00
28306;BME280;7516;43.570;1.448;2024-03-17T07:55:56;100073.03;;;13.08;100.00
28306;BME280;7516;43.570;1.448;2024-03-17T07:58:23;100071.81;;;13.18;100.00
28306;BME280;7516;43.570;1.448;2024-03-17T08:00:51;100068.72;;;13.30;100.00
28306;BME280;7516;43.570;1.448;2024-03-17T08:03:19;100073.00;;;13.45;100.00
28306;BME280;7516;43.570;1.448;2024-03-17T08:05:50;100073.63;;;13.62;99.90
28306;BME280;7516;43.570;1.448;2024-03-17T08:08:18;100073.16;;;13.73;99.67
28306;BME280;7516;43.570;1.448;2024-03-17T08:10:46;100073.88;;;13.82;98.93
28306;BME280;7516;43.570;1.448;2024-03-17T08:13:14;100081.13;;;13.94;98.35
28306;BME280;7516;43.570;1.448;2024-03-17T08:15:42;100080.44;;;14.07;98.42
28306;BME280;7516;43.570;1.448;2024-03-17T08:18:13;100076.97;;;14.21;97.54
28306;BME280;7516;43.570;1.448;2024-03-17T08:20:44;100072.56;;;14.28;96.98
28306;BME280;7516;43.570;1.448;2024-03-17T08:23:14;100080.38;;;14.37;95.29
28306;BME280;7516;43.570;1.448;2024-03-17T08:25:52;100079.28;;;14.46;94.18
28306;BME280;7516;43.570;1.448;2024-03-17T08:28:20;100071.69;;;14.57;93.85
28306;BME280;7516;43.570;1.448;2024-03-17T08:30:52;100079.28;;;14.67;94.16
28306;BME280;7516;43.570;1.448;2024-03-17T08:33:20;100077.53;;;14.74;90.15
28306;BME280;7516;43.570;1.448;2024-03-17T08:35:55;100074.75;;;14.82;90.09
28306;BME280;7516;43.570;1.448;2024-03-17T08:38:25;100077.69;;;14.94;87.68
28306;BME280;7516;43.570;1.448;2024-03-17T08:40:54;100088.91;;;15.02;89.87
28306;BME280;7516;43.570;1.448;2024-03-17T08:43:22;100089.19;;;15.14;86.12
28306;BME280;7516;43.570;1.448;2024-03-17T08:45:56;100098.56;;;15.17;87.76
28306;BME280;7516;43.570;1.448;2024-03-17T08:48:25;100088.09;;;15.30;88.28
28306;BME280;7516;43.570;1.448;2024-03-17T08:50:55;100083.28;;;15.40;87.99
28306;BME280;7516;43.570;1.448;2024-03-17T08:53:24;100083.91;;;15.42;87.81
28306;BME280;7516;43.570;1.448;2024-03-17T08:55:52;100085.75;;;15.48;87.09
28306;BME280;7516;43.570;1.448;2024-03-17T08:58:21;100073.44;;;15.55;83.32
28306;BME280;7516;43.570;1.448;2024-03-17T09:00:48;100077.31;;;15.59;84.03
28306;BME280;7516;43.570;1.448;2024-03-17T09:03:17;100076.16;;;15.68;83.90
28306;BME280;7516;43.570;1.448;2024-03-17T09:05:45;100080.63;;;15.68;83.54
28306;BME280;7516;43.570;1.448;2024-03-17T09:08:16;100075.78;;;15.78;82.70
28306;BME280;7516;43.570;1.448;2024-03-17T09:10:48;100089.84;;;15.85;82.51
28306;BME280;7516;43.570;1.448;2024-03-17T09:13:17;100095.19;;;15.92;81.35
28306;BME280;7516;43.570;1.448;2024-03-17T09:15:53;100091.50;;;15.93;79.08
28306;BME280;7516;43.570;1.448;2024-03-17T09:18:21;100094.38;;;15.98;78.70
28306;BME280;7516;43.570;1.448;2024-03-17T09:20:57;100083.00;;;16.04;79.37
28306;BME280;7516;43.570;1.448;2024-03-17T09:23:25;100087.91;;;16.13;79.59
28306;BME280;7516;43.570;1.448;2024-03-17T09:26:00;100081.25;;;16.24;77.19
28306;BME280;7516;43.570;1.448;2024-03-17T09:28:28;100083.72;;;16.32;77.01
28306;BME280;7516;43.570;1.448;2024-03-17T09:30:56;100076.97;;;16.36;77.02
28306;BME280;7516;43.570;1.448;2024-03-17T09:33:25;100071.53;;;16.44;75.27
28306;BME280;7516;43.570;1.448;2024-03-17T09:35:54;100073.38;;;16.50;76.67
28306;BME280;7516;43.570;1.448;2024-03-17T09:38:22;100067.88;;;16.52;73.69
28306;BME280;7516;43.570;1.448;2024-03-17T09:40:50;100072.56;;;16.56;76.14
28306;BME280;7516;43.570;1.448;2024-03-17T09:43:20;100072.38;;;16.65;74.56
28306;BME280;7516;43.570;1.448;2024-03-17T09:45:48;100062.41;;;16.67;74.19
28306;BME280;7516;43.570;1.448;2024-03-17T09:48:17;100060.38;;;16.69;73.69
28306;BME280;7516;43.570;1.448;2024-03-17T09:50:50;100062.41;;;16.80;72.05
28306;BME280;7516;43.570;1.448;2024-03-17T09:53:23;100069.94;;;16.89;72.40
28306;BME280;7516;43.570;1.448;2024-03-17T09:55:52;100076.06;;;16.97;72.28
28306;BME280;7516;43.570;1.448;2024-03-17T09:58:21;100079.31;;;16.99;72.09
28306;BME280;7516;43.570;1.448;2024-03-17T10:00:49;100087.69;;;17.02;72.58
28306;BME280;7516;43.570;1.448;2024-03-17T10:03:41;100076.66;;;17.12;72.19
28306;BME280;7516;43.570;1.448;2024-03-17T10:06:11;100073.38;;;17.16;72.33
28306;BME280;7516;43.570;1.448;2024-03-17T10:08:43;100084.19;;;17.21;73.67
28306;BME280;7516;43.570;1.448;2024-03-17T10:11:11;100088.25;;;17.24;73.92
28306;BME280;7516;43.570;1.448;2024-03-17T10:13:41;100087.63;;;17.35;72.73
28306;BME280;7516;43.570;1.448;2024-03-17T10:16:22;100098.88;;;17.30;73.69
28306;BME280;7516;43.570;1.448;2024-03-17T10:18:50;100093.75;;;17.36;74.69
28306;BME280;7516;43.570;1.448;2024-03-17T10:21:25;100087.84;;;17.40;75.08
28306;BME280;7516;43.570;1.448;2024-03-17T10:24:06;100087.59;;;17.42;75.51
28306;BME280;7516;43.570;1.448;2024-03-17T10:26:37;100104.13;;;17.57;74.85
28306;BME280;7516;43.570;1.448;2024-03-17T10:29:19;100102.06;;;17.59;72.75
28306;BME280;7516;43.570;1.448;2024-03-17T10:31:48;100104.94;;;17.64;71.01
28306;BME280;7516;43.570;1.448;2024-03-17T10:34:16;100100.41;;;17.71;70.40
28306;BME280;7516;43.570;1.448;2024-03-17T10:36:44;100099.41;;;17.72;72.11
28306;BME280;7516;43.570;1.448;2024-03-17T10:39:28;100093.09;;;17.73;71.45
28306;BME280;7516;43.570;1.448;2024-03-17T10:42:00;100078.38;;;17.77;71.64
28306;BME280;7516;43.570;1.448;2024-03-17T10:44:30;100070.56;;;17.89;71.51
28306;BME280;7516;43.570;1.448;2024-03-17T10:46:59;100072.41;;;17.88;72.44
28306;BME280;7516;43.570;1.448;2024-03-17T10:49:30;100070.13;;;17.98;72.66
28306;BME280;7516;43.570;1.448;2024-03-17T10:52:00;100085.63;;;18.01;72.62
28306;BME280;7516;43.570;1.448;2024-03-17T10:54:28;100086.88;;;17.99;73.07
28306;BME280;7516;43.570;1.448;2024-03-17T10:56:57;100099.91;;;18.00;73.73
28306;BME280;7516;43.570;1.448;2024-03-17T10:59:39;100106.00;;;18.08;73.78
28306;BME280;7516;43.570;1.448;2024-03-17T11:02:20;100100.06;;;18.12;71.61
28306;BME280;7516;43.570;1.448;2024-03-17T11:04:51;100106.56;;;18.16;72.30
28306;BME280;7516;43.570;1.448;2024-03-17T11:07:19;100102.25;;;18.22;71.26
28306;BME280;7516;43.570;1.448;2024-03-17T11:09:48;100099.34;;;18.30;69.53
28306;BME280;7516;43.570;1.448;2024-03-17T11:12:39;100092.34;;;18.42;67.70
28306;BME280;7516;43.570;1.448;2024-03-17T11:15:40;100096.16;;;18.53;68.53
28306;BME280;7516;43.570;1.448;2024-03-17T11:18:29;100097.19;;;18.52;68.43
28306;BME280;7516;43.570;1.448;2024-03-17T11:20:58;100093.31;;;18.54;69.64
28306;BME280;7516;43.570;1.448;2024-03-17T11:23:28;100095.53;;;18.57;69.99
28306;BME280;7516;43.570;1.448;2024-03-17T11:25:57;100095.06;;;18.67;69.08
28306;BME280;7516;43.570;1.448;2024-03-17T11:28:45;100084.63;;;18.72;68.51
28306;BME280;7516;43.570;1.448;2024-03-17T11:31:38;100083.91;;;18.83;68.20
28306;BME280;7516;43.570;1.448;2024-03-17T11:34:26;100071.63;;;18.89;67.90
28306;BME280;7516;43.570;1.448;2024-03-17T11:36:54;100067.06;;;18.96;65.13
28306;BME280;7516;43.570;1.448;2024-03-17T11:39:22;100063.97;;;18.99;64.93
28306;BME280;7516;43.570;1.448;2024-03-17T11:42:13;100054.19;;;19.17;63.55
28306;BME280;7516;43.570;1.448;2024-03-17T11:44:43;100065.34;;;19.26;64.58
28306;BME280;7516;43.570;1.448;2024-03-17T11:47:11;100058.94;;;19.34;64.08
28306;BME280;7516;43.570;1.448;2024-03-17T11:49:39;100069.50;;;19.40;64.75
28306;BME280;7516;43.570;1.448;2024-03-17T11:52:10;100070.88;;;19.49;63.03
28306;BME280;7516;43.570;1.448;2024-03-17T11:54:40;100066.84;;;19.40;64.29
28306;BME280;7516;43.570;1.448;2024-03-17T11:57:12;100058.59;;;19.48;61.26
28306;BME280;7516;43.570;1.448;2024-03-17T11:59:39;100050.94;;;19.59;60.09
28306;BME280;7516;43.570;1.448;2024-03-17T12:02:19;100044.72;;;19.65;57.49
28306;BME280;7516;43.570;1.448;2024-03-17T12:04:45;100042.03;;;19.83;52.55
28306;BME280;7516;43.570;1.448;2024-03-17T12:07:14;100027.47;;;19.85;55.06
28306;BME280;7516;43.570;1.448;2024-03-17T12:09:45;100023.81;;;19.98;55.48
28306;BME280;7516;43.570;1.448;2024-03-17T12:12:17;100017.94;;;20.08;53.29
28306;BME280;7516;43.570;1.448;2024-03-17T12:14:45;100009.88;;;20.14;52.79
28306;BME280;7516;43.570;1.448;2024-03-17T12:17:21;100009.09;;;20.25;51.60
28306;BME280;7516;43.570;1.448;2024-03-17T12:19:48;100002.88;;;20.32;50.89
28306;BME280;7516;43.570;1.448;2024-03-17T12:22:17;100004.44;;;20.39;50.47
28306;BME280;7516;43.570;1.448;2024-03-17T12:24:48;100006.16;;;20.45;48.48
28306;BME280;7516;43.570;1.448;2024-03-17T12:27:18;100007.34;;;20.61;48.33
28306;BME280;7516;43.570;1.448;2024-03-17T12:29:45;100004.81;;;20.66;47.63
28306;BME280;7516;43.570;1.448;2024-03-17T12:32:16;100002.03;;;20.84;47.81
28306;BME280;7516;43.570;1.448;2024-03-17T12:34:43;100003.53;;;20.80;48.44
28306;BME280;7516;43.570;1.448;2024-03-17T12:37:17;99994.16;;;20.78;48.80
28306;BME280;7516;43.570;1.448;2024-03-17T12:39:44;99999.94;;;20.86;47.29
28306;BME280;7516;43.570;1.448;2024-03-17T12:42:14;99989.97;;;20.93;47.29
28306;BME280;7516;43.570;1.448;2024-03-17T12:44:46;99995.44;;;20.98;46.40
28306;BME280;7516;43.570;1.448;2024-03-17T12:47:17;99983.84;;;20.93;48.28
28306;BME280;7516;43.570;1.448;2024-03-17T12:49:48;99981.28;;;20.98;47.41
28306;BME280;7516;43.570;1.448;2024-03-17T12:52:21;99977.44;;;21.06;47.08
28306;BME280;7516;43.570;1.448;2024-03-17T12:54:57;99971.31;;;21.05;48.67
28306;BME280;7516;43.570;1.448;2024-03-17T12:57:38;99960.50;;;21.12;49.40
28306;BME280;7516;43.570;1.448;2024-03-17T13:00:23;99965.28;;;21.21;46.68
28306;BME280;7516;43.570;1.448;2024-03-17T13:03:03;99969.34;;;21.24;45.34
28306;BME280;7516;43.570;1.448;2024-03-17T13:05:31;99955.19;;;21.23;44.85
28306;BME280;7516;43.570;1.448;2024-03-17T13:07:59;99949.28;;;21.21;46.48
28306;BME280;7516;43.570;1.448;2024-03-17T13:10:28;99945.56;;;21.22;45.98
28306;BME280;7516;43.570;1.448;2024-03-17T13:13:01;99938.59;;;21.33;44.64
28306;BME280;7516;43.570;1.448;2024-03-17T13:15:29;99941.84;;;21.35;44.56